sensor_id;sensor_type;location;lat;lon;timestamp;P1;durP1;ratioP1;P2;durP2;ratioP2
12587;SDS011;6359;51.450;7.346;2022-10-26T00:01:31;13.60;;;3.92;;
12587;SDS011;6359;51.450;7.346;2022-10-26T00:03:58;6.20;;;4.05;;
12587;SDS011;6359;51.450;7.346;2022-10-26T00:06:25;8.32;;;4.15;;
12587;SDS011;6359;51.450;7.346;2022-10-26T00:08:54;6.22;;;4.13;;
12587;SDS011;6359;51.450;7.346;2022-10-26T00:11:21;8.90;;;3.92;;
12587;SDS011;6359;51.450;7.346;2022-10-26T00:13:48;5.93;;;4.00;;
12587;SDS011;6359;51.450;7.346;2022-10-26T00:16:18;13.38;;;4.55;;
12587;SDS011;6359;51.450;7.346;2022-10-26T00:18:46;6.20;;;3.88;;
12587;SDS011;6359;51.450;7.346;2022-10-26T00:21:13;6.72;;;4.03;;
12587;SDS011;6359;51.450;7.346;2022-10-26T00:23:41;9.48;;;4.28;;
12587;SDS011;6359;51.450;7.346;2022-10-26T00:26:08;7.03;;;4.43;;
12587;SDS011;6359;51.450;7.346;2022-10-26T00:28:35;7.22;;;3.83;;
12587;SDS011;6359;51.450;7.346;2022-10-26T00:31:03;14.23;;;4.63;;
12587;SDS011;6359;51.450;7.346;2022-10-26T00:33:32;5.22;;;4.07;;
12587;SDS011;6359;51.450;7.346;2022-10-26T00:36:00;7.70;;;3.90;;
12587;SDS011;6359;51.450;7.346;2022-10-26T00:38:27;7.47;;;3.70;;
12587;SDS011;6359;51.450;7.346;2022-10-26T00:40:54;8.48;;;3.95;;
12587;SDS011;6359;51.450;7.346;2022-10-26T00:43:33;10.10;;;3.70;;
12587;SDS011;6359;51.450;7.346;2022-10-26T00:46:02;8.05;;;3.55;;
12587;SDS011;6359;51.450;7.346;2022-10-26T00:48:35;8.00;;;4.00;;
12587;SDS011;6359;51.450;7.346;2022-10-26T00:51:07;12.48;;;4.25;;
12587;SDS011;6359;51.450;7.346;2022-10-26T00:53:38;9.65;;;3.90;;
12587;SDS011;6359;51.450;7.346;2022-10-26T00:56:06;9.55;;;3.78;;
12587;SDS011;6359;51.450;7.346;2022-10-26T00:58:34;4.28;;;3.35;;
12587;SDS011;6359;51.450;7.346;2022-10-26T01:01:02;8.15;;;3.80;;
12587;SDS011;6359;51.450;7.346;2022-10-26T01:03:29;8.18;;;3.75;;
12587;SDS011;6359;51.450;7.346;2022-10-26T01:05:58;10.13;;;4.25;;
12587;SDS011;6359;51.450;7.346;2022-10-26T01:08:25;7.47;;;3.78;;
12587;SDS011;6359;51.450;7.346;2022-10-26T01:10:53;9.93;;;3.95;;
12587;SDS011;6359;51.450;7.346;2022-10-26T01:13:21;6.43;;;3.90;;
12587;SDS011;6359;51.450;7.346;2022-10-26T01:15:50;11.32;;;3.90;;
12587;SDS011;6359;51.450;7.346;2022-10-26T01:18:26;12.90;;;3.70;;
12587;SDS011;6359;51.450;7.346;2022-10-26T01:21:16;3.42;;;3.03;;
12587;SDS011;6359;51.450;7.346;2022-10-26T01:24:05;10.95;;;3.67;;
12587;SDS011;6359;51.450;7.346;2022-10-26T01:29:49;8.20;;;3.53;;
12587;SDS011;6359;51.450;7.346;2022-10-26T01:32:28;9.18;;;3.30;;
12587;SDS011;6359;51.450;7.346;2022-10-26T01:34:58;12.27;;;3.90;;
12587;SDS011;6359;51.450;7.346;2022-10-26T01:37:34;7.00;;;3.78;;
12587;SDS011;6359;51.450;7.346;2022-10-26T01:40:05;7.22;;;3.70;;
12587;SDS011;6359;51.450;7.346;2022-10-26T01:42:39;8.98;;;3.70;;
12587;SDS011;6359;51.450;7.346;2022-10-26T01:45:10;5.28;;;3.05;;
12587;SDS011;6359;51.450;7.346;2022-10-26T01:47:41;5.63;;;3.00;;
12587;SDS011;6359;51.450;7.346;2022-10-26T01:50:09;5.32;;;3.00;;
12587;SDS011;6359;51.450;7.346;2022-10-26T01:52:37;5.30;;;3.10;;
12587;SDS011;6359;51.450;7.346;2022-10-26T01:55:06;8.48;;;3.53;;
12587;SDS011;6359;51.450;7.346;2022-10-26T01:57:49;10.65;;;3.47;;
12587;SDS011;6359;51.450;7.346;2022-10-26T02:00:17;8.52;;;3.10;;
12587;SDS011;6359;51.450;7.346;2022-10-26T02:02:50;7.22;;;3.22;;
12587;SDS011;6359;51.450;7.346;2022-10-26T02:05:25;7.63;;;3.30;;
12587;SDS011;6359;51.450;7.346;2022-10-26T02:08:01;7.35;;;3.50;;
12587;SDS011;6359;51.450;7.346;2022-10-26T02:10:40;13.60;;;3.10;;
12587;SDS011;6359;51.450;7.346;2022-10-26T02:13:15;7.75;;;3.33;;
12587;SDS011;6359;51.450;7.346;2022-10-26T02:15:47;3.63;;;2.90;;
12587;SDS011;6359;51.450;7.346;2022-10-26T02:18:21;7.72;;;3.40;;
12587;SDS011;6359;51.450;7.346;2022-10-26T02:20:56;4.15;;;2.60;;
12587;SDS011;6359;51.450;7.346;2022-10-26T02:23:28;7.97;;;2.45;;
12587;SDS011;6359;51.450;7.346;2022-10-26T02:25:59;8.00;;;2.72;;
12587;SDS011;6359;51.450;7.346;2022-10-26T02:28:27;6.97;;;2.88;;
12587;SDS011;6359;51.450;7.346;2022-10-26T02:30:59;12.82;;;3.38;;
12587;SDS011;6359;51.450;7.346;2022-10-26T02:33:30;4.38;;;2.92;;
12587;SDS011;6359;51.450;7.346;2022-10-26T02:36:02;5.82;;;3.15;;
12587;SDS011;6359;51.450;7.346;2022-10-26T02:38:32;7.50;;;3.00;;
12587;SDS011;6359;51.450;7.346;2022-10-26T02:41:00;4.03;;;2.42;;
12587;SDS011;6359;51.450;7.346;2022-10-26T02:43:29;4.13;;;2.60;;
12587;SDS011;6359;51.450;7.346;2022-10-26T02:46:03;4.20;;;2.42;;
12587;SDS011;6359;51.450;7.346;2022-10-26T02:48:35;5.45;;;2.88;;
12587;SDS011;6359;51.450;7.346;2022-10-26T02:51:03;8.63;;;2.50;;
12587;SDS011;6359;51.450;7.346;2022-10-26T02:53:37;6.57;;;2.10;;
12587;SDS011;6359;51.450;7.346;2022-10-26T02:56:11;4.30;;;2.72;;
12587;SDS011;6359;51.450;7.346;2022-10-26T02:58:43;7.13;;;2.53;;
12587;SDS011;6359;51.450;7.346;2022-10-26T03:01:14;8.15;;;2.28;;
12587;SDS011;6359;51.450;7.346;2022-10-26T03:03:42;7.70;;;2.35;;
12587;SDS011;6359;51.450;7.346;2022-10-26T03:06:10;10.57;;;2.40;;
12587;SDS011;6359;51.450;7.346;2022-10-26T03:08:37;4.35;;;2.10;;
12587;SDS011;6359;51.450;7.346;2022-10-26T03:11:04;5.05;;;2.10;;
12587;SDS011;6359;51.450;7.346;2022-10-26T03:13:31;6.10;;;1.80;;
12587;SDS011;6359;51.450;7.346;2022-10-26T03:15:58;6.00;;;1.88;;
12587;SDS011;6359;51.450;7.346;2022-10-26T03:18:25;10.45;;;2.00;;
12587;SDS011;6359;51.450;7.346;2022-10-26T03:20:53;5.68;;;1.83;;
12587;SDS011;6359;51.450;7.346;2022-10-26T03:23:20;6.35;;;1.77;;
12587;SDS011;6359;51.450;7.346;2022-10-26T03:25:47;2.38;;;1.60;;
12587;SDS011;6359;51.450;7.346;2022-10-26T03:28:13;8.57;;;1.90;;
12587;SDS011;6359;51.450;7.346;2022-10-26T03:30:40;4.30;;;1.42;;
12587;SDS011;6359;51.450;7.346;2022-10-26T03:33:07;3.15;;;1.77;;
12587;SDS011;6359;51.450;7.346;2022-10-26T03:35:34;4.78;;;1.83;;
12587;SDS011;6359;51.450;7.346;2022-10-26T03:38:02;5.65;;;1.50;;
12587;SDS011;6359;51.450;7.346;2022-10-26T03:40:29;4.78;;;1.52;;
12587;SDS011;6359;51.450;7.346;2022-10-26T03:42:56;3.75;;;1.42;;
12587;SDS011;6359;51.450;7.346;2022-10-26T03:45:23;3.95;;;1.20;;
12587;SDS011;6359;51.450;7.346;2022-10-26T03:47:50;2.90;;;1.20;;
12587;SDS011;6359;51.450;7.346;2022-10-26T03:50:17;3.70;;;1.50;;
12587;SDS011;6359;51.450;7.346;2022-10-26T03:52:47;2.97;;;1.30;;
12587;SDS011;6359;51.450;7.346;2022-10-26T03:55:16;7.78;;;1.58;;
12587;SDS011;6359;51.450;7.346;2022-10-26T03:57:43;6.97;;;1.70;;
12587;SDS011;6359;51.450;7.346;2022-10-26T04:00:11;5.10;;;1.20;;
12587;SDS011;6359;51.450;7.346;2022-10-26T04:02:40;2.78;;;1.30;;
12587;SDS011;6359;51.450;7.346;2022-10-26T04:05:08;5.00;;;1.58;;
12587;SDS011;6359;51.450;7.346;2022-10-26T04:07:35;8.45;;;1.45;;
12587;SDS011;6359;51.450;7.346;2022-10-26T04:10:02;4.90;;;1.23;;
12587;SDS011;6359;51.450;7.346;2022-10-26T04:12:31;5.45;;;1.30;;
12587;SDS011;6359;51.450;7.346;2022-10-26T04:15:01;5.35;;;1.30;;
12587;SDS011;6359;51.450;7.346;2022-10-26T04:17:28;6.10;;;1.35;;
12587;SDS011;6359;51.450;7.346;2022-10-26T04:19:54;4.90;;;1.23;;
12587;SDS011;6359;51.450;7.346;2022-10-26T04:22:21;7.53;;;1.35;;
12587;SDS011;6359;51.450;7.346;2022-10-26T04:24:48;7.72;;;1.77;;
12587;SDS011;6359;51.450;7.346;2022-10-26T04:27:15;7.68;;;1.35;;
12587;SDS011;6359;51.450;7.346;2022-10-26T04:29:43;4.88;;;1.40;;
12587;SDS011;6359;51.450;7.346;2022-10-26T04:32:10;13.07;;;1.63;;
12587;SDS011;6359;51.450;7.346;2022-10-26T04:34:37;3.33;;;1.27;;
12587;SDS011;6359;51.450;7.346;2022-10-26T04:37:04;4.53;;;1.20;;
12587;SDS011;6359;51.450;7.346;2022-10-26T04:39:31;5.10;;;1.20;;
12587;SDS011;6359;51.450;7.346;2022-10-26T04:41:57;4.72;;;1.33;;
12587;SDS011;6359;51.450;7.346;2022-10-26T04:44:24;7.78;;;1.10;;
12587;SDS011;6359;51.450;7.346;2022-10-26T04:46:53;4.60;;;1.10;;
12587;SDS011;6359;51.450;7.346;2022-10-26T04:49:19;5.82;;;1.10;;
12587;SDS011;6359;51.450;7.346;2022-10-26T04:51:46;7.43;;;1.42;;
12587;SDS011;6359;51.450;7.346;2022-10-26T04:54:13;2.53;;;0.98;;
12587;SDS011;6359;51.450;7.346;2022-10-26T04:56:40;5.97;;;1.52;;
12587;SDS011;6359;51.450;7.346;2022-10-26T04:59:07;1.25;;;0.93;;
12587;SDS011;6359;51.450;7.346;2022-10-26T05:01:34;2.60;;;1.00;;
12587;SDS011;6359;51.450;7.346;2022-10-26T05:04:02;2.25;;;1.20;;
12587;SDS011;6359;51.450;7.346;2022-10-26T05:06:29;6.13;;;1.42;;
12587;SDS011;6359;51.450;7.346;2022-10-26T05:08:56;3.58;;;1.23;;
12587;SDS011;6359;51.450;7.346;2022-10-26T05:11:23;7.28;;;1.15;;
12587;SDS011;6359;51.450;7.346;2022-10-26T05:13:49;4.13;;;1.20;;
12587;SDS011;6359;51.450;7.346;2022-10-26T05:16:16;5.15;;;1.25;;
12587;SDS011;6359;51.450;7.346;2022-10-26T05:18:43;3.85;;;1.17;;
12587;SDS011;6359;51.450;7.346;2022-10-26T05:21:15;3.03;;;1.20;;
12587;SDS011;6359;51.450;7.346;2022-10-26T05:23:43;1.63;;;1.13;;
12587;SDS011;6359;51.450;7.346;2022-10-26T05:26:13;4.13;;;1.00;;
12587;SDS011;6359;51.450;7.346;2022-10-26T05:28:39;5.15;;;1.15;;
12587;SDS011;6359;51.450;7.346;2022-10-26T05:31:06;4.45;;;1.30;;
12587;SDS011;6359;51.450;7.346;2022-10-26T05:33:33;7.40;;;1.67;;
12587;SDS011;6359;51.450;7.346;2022-10-26T05:36:00;3.35;;;1.25;;
12587;SDS011;6359;51.450;7.346;2022-10-26T05:38:28;7.03;;;1.10;;
12587;SDS011;6359;51.450;7.346;2022-10-26T05:40:55;2.58;;;1.10;;
12587;SDS011;6359;51.450;7.346;2022-10-26T05:43:23;3.97;;;1.00;;
12587;SDS011;6359;51.450;7.346;2022-10-26T05:45:51;2.75;;;1.20;;
12587;SDS011;6359;51.450;7.346;2022-10-26T05:48:18;4.68;;;1.30;;
12587;SDS011;6359;51.450;7.346;2022-10-26T05:50:45;3.50;;;1.13;;
12587;SDS011;6359;51.450;7.346;2022-10-26T05:53:12;3.70;;;1.08;;
12587;SDS011;6359;51.450;7.346;2022-10-26T05:55:41;1.55;;;0.75;;
12587;SDS011;6359;51.450;7.346;2022-10-26T05:58:09;5.78;;;1.00;;
12587;SDS011;6359;51.450;7.346;2022-10-26T06:00:39;6.57;;;0.90;;
12587;SDS011;6359;51.450;7.346;2022-10-26T06:03:18;1.58;;;1.00;;
12587;SDS011;6359;51.450;7.346;2022-10-26T06:05:52;3.22;;;1.25;;
12587;SDS011;6359;51.450;7.346;2022-10-26T06:08:20;2.20;;;0.88;;
12587;SDS011;6359;51.450;7.346;2022-10-26T06:10:50;2.75;;;0.90;;
12587;SDS011;6359;51.450;7.346;2022-10-26T06:13:18;3.75;;;1.10;;
12587;SDS011;6359;51.450;7.346;2022-10-26T06:15:49;8.50;;;1.10;;
12587;SDS011;6359;51.450;7.346;2022-10-26T06:18:28;5.45;;;1.50;;
12587;SDS011;6359;51.450;7.346;2022-10-26T06:21:07;4.55;;;1.23;;
12587;SDS011;6359;51.450;7.346;2022-10-26T06:23:46;3.75;;;1.00;;
12587;SDS011;6359;51.450;7.346;2022-10-26T06:26:23;5.95;;;1.35;;
12587;SDS011;6359;51.450;7.346;2022-10-26T06:28:59;3.38;;;1.15;;
12587;SDS011;6359;51.450;7.346;2022-10-26T06:31:33;4.65;;;1.30;;
12587;SDS011;6359;51.450;7.346;2022-10-26T06:34:00;10.23;;;1.50;;
12587;SDS011;6359;51.450;7.346;2022-10-26T06:36:27;3.00;;;1.38;;
12587;SDS011;6359;51.450;7.346;2022-10-26T06:38:57;5.32;;;2.20;;
12587;SDS011;6359;51.450;7.346;2022-10-26T06:41:28;3.80;;;1.98;;
12587;SDS011;6359;51.450;7.346;2022-10-26T06:43:57;3.33;;;1.58;;
12587;SDS011;6359;51.450;7.346;2022-10-26T06:46:28;3.90;;;1.58;;
12587;SDS011;6359;51.450;7.346;2022-10-26T06:49:04;5.43;;;1.60;;
12587;SDS011;6359;51.450;7.346;2022-10-26T06:51:36;2.00;;;1.20;;
12587;SDS011;6359;51.450;7.346;2022-10-26T06:54:11;2.22;;;1.15;;
12587;SDS011;6359;51.450;7.346;2022-10-26T06:56:44;9.30;;;2.60;;
12587;SDS011;6359;51.450;7.346;2022-10-26T06:59:13;2.22;;;1.13;;
12587;SDS011;6359;51.450;7.346;2022-10-26T07:01:43;3.45;;;1.25;;
12587;SDS011;6359;51.450;7.346;2022-10-26T07:04:10;2.80;;;1.60;;
12587;SDS011;6359;51.450;7.346;2022-10-26T07:06:37;6.00;;;1.83;;
12587;SDS011;6359;51.450;7.346;2022-10-26T07:09:04;2.30;;;1.70;;
12587;SDS011;6359;51.450;7.346;2022-10-26T07:11:31;3.00;;;1.30;;
12587;SDS011;6359;51.450;7.346;2022-10-26T07:13:59;6.15;;;1.88;;
12587;SDS011;6359;51.450;7.346;2022-10-26T07:16:26;3.05;;;1.00;;
12587;SDS011;6359;51.450;7.346;2022-10-26T07:18:53;3.08;;;1.38;;
12587;SDS011;6359;51.450;7.346;2022-10-26T07:21:20;6.82;;;1.40;;
12587;SDS011;6359;51.450;7.346;2022-10-26T07:23:46;2.38;;;1.00;;
12587;SDS011;6359;51.450;7.346;2022-10-26T07:26:13;1.40;;;1.30;;
12587;SDS011;6359;51.450;7.346;2022-10-26T07:28:40;4.90;;;1.63;;
12587;SDS011;6359;51.450;7.346;2022-10-26T07:31:09;1.70;;;1.48;;
12587;SDS011;6359;51.450;7.346;2022-10-26T07:33:35;2.80;;;1.40;;
12587;SDS011;6359;51.450;7.346;2022-10-26T07:36:02;4.40;;;1.10;;
12587;SDS011;6359;51.450;7.346;2022-10-26T07:38:30;4.85;;;1.30;;
12587;SDS011;6359;51.450;7.346;2022-10-26T07:40:56;2.63;;;0.90;;
12587;SDS011;6359;51.450;7.346;2022-10-26T07:43:23;1.42;;;0.90;;
12587;SDS011;6359;51.450;7.346;2022-10-26T07:45:50;2.40;;;0.90;;
12587;SDS011;6359;51.450;7.346;2022-10-26T07:48:18;3.40;;;1.17;;
12587;SDS011;6359;51.450;7.346;2022-10-26T07:50:46;2.40;;;0.90;;
12587;SDS011;6359;51.450;7.346;2022-10-26T07:53:13;4.57;;;1.20;;
12587;SDS011;6359;51.450;7.346;2022-10-26T07:55:40;5.25;;;1.08;;
12587;SDS011;6359;51.450;7.346;2022-10-26T07:58:07;4.03;;;1.30;;
12587;SDS011;6359;51.450;7.346;2022-10-26T08:00:34;3.78;;;1.10;;
12587;SDS011;6359;51.450;7.346;2022-10-26T08:03:00;2.30;;;0.90;;
12587;SDS011;6359;51.450;7.346;2022-10-26T08:05:29;3.25;;;1.40;;
12587;SDS011;6359;51.450;7.346;2022-10-26T08:07:56;2.95;;;1.60;;
12587;SDS011;6359;51.450;7.346;2022-10-26T08:10:30;2.40;;;1.20;;
12587;SDS011;6359;51.450;7.346;2022-10-26T08:12:56;6.18;;;1.30;;
12587;SDS011;6359;51.450;7.346;2022-10-26T08:15:23;4.00;;;0.90;;
12587;SDS011;6359;51.450;7.346;2022-10-26T08:17:50;4.38;;;0.90;;
12587;SDS011;6359;51.450;7.346;2022-10-26T08:20:17;2.88;;;1.15;;
12587;SDS011;6359;51.450;7.346;2022-10-26T08:22:46;3.42;;;0.85;;
12587;SDS011;6359;51.450;7.346;2022-10-26T08:25:13;3.55;;;1.10;;
12587;SDS011;6359;51.450;7.346;2022-10-26T08:27:40;3.42;;;1.25;;
12587;SDS011;6359;51.450;7.346;2022-10-26T08:30:07;6.05;;;2.33;;
12587;SDS011;6359;51.450;7.346;2022-10-26T08:32:34;6.18;;;3.88;;
12587;SDS011;6359;51.450;7.346;2022-10-26T08:35:01;3.83;;;1.00;;
12587;SDS011;6359;51.450;7.346;2022-10-26T08:37:28;1.70;;;1.08;;
12587;SDS011;6359;51.450;7.346;2022-10-26T08:39:56;4.78;;;1.13;;
12587;SDS011;6359;51.450;7.346;2022-10-26T08:42:24;3.03;;;1.20;;
12587;SDS011;6359;51.450;7.346;2022-10-26T08:44:56;3.75;;;1.50;;
12587;SDS011;6359;51.450;7.346;2022-10-26T08:47:27;1.55;;;0.90;;
12587;SDS011;6359;51.450;7.346;2022-10-26T08:49:58;3.70;;;1.30;;
12587;SDS011;6359;51.450;7.346;2022-10-26T08:52:29;1.67;;;1.05;;
12587;SDS011;6359;51.450;7.346;2022-10-26T08:55:05;2.15;;;1.30;;
12587;SDS011;6359;51.450;7.346;2022-10-26T08:57:41;5.25;;;1.38;;
12587;SDS011;6359;51.450;7.346;2022-10-26T09:00:10;4.35;;;1.48;;
12587;SDS011;6359;51.450;7.346;2022-10-26T09:02:40;3.78;;;1.38;;
12587;SDS011;6359;51.450;7.346;2022-10-26T09:05:11;3.92;;;1.50;;
12587;SDS011;6359;51.450;7.346;2022-10-26T09:07:47;3.78;;;1.10;;
12587;SDS011;6359;51.450;7.346;2022-10-26T09:10:26;1.23;;;0.90;;
12587;SDS011;6359;51.450;7.346;2022-10-26T09:13:04;4.85;;;1.25;;
12587;SDS011;6359;51.450;7.346;2022-10-26T09:15:41;4.72;;;1.20;;
12587;SDS011;6359;51.450;7.346;2022-10-26T09:18:20;3.47;;;1.67;;
12587;SDS011;6359;51.450;7.346;2022-10-26T09:20:58;2.13;;;1.00;;
12587;SDS011;6359;51.450;7.346;2022-10-26T09:23:45;2.85;;;1.15;;
12587;SDS011;6359;51.450;7.346;2022-10-26T09:26:25;6.00;;;1.48;;
12587;SDS011;6359;51.450;7.346;2022-10-26T09:29:04;5.15;;;1.38;;
12587;SDS011;6359;51.450;7.346;2022-10-26T09:31:38;9.18;;;1.65;;
12587;SDS011;6359;51.450;7.346;2022-10-26T09:34:06;5.05;;;1.70;;
12587;SDS011;6359;51.450;7.346;2022-10-26T09:36:37;7.50;;;1.25;;
12587;SDS011;6359;51.450;7.346;2022-10-26T09:39:09;3.20;;;1.27;;
12587;SDS011;6359;51.450;7.346;2022-10-26T09:41:42;7.22;;;1.30;;
12587;SDS011;6359;51.450;7.346;2022-10-26T09:44:17;4.85;;;1.58;;
12587;SDS011;6359;51.450;7.346;2022-10-26T09:46:52;3.92;;;1.38;;
12587;SDS011;6359;51.450;7.346;2022-10-26T09:49:25;10.13;;;2.00;;
12587;SDS011;6359;51.450;7.346;2022-10-26T09:51:58;10.27;;;1.75;;
12587;SDS011;6359;51.450;7.346;2022-10-26T09:54:25;4.65;;;1.40;;
12587;SDS011;6359;51.450;7.346;2022-10-26T09:56:54;6.25;;;1.70;;
12587;SDS011;6359;51.450;7.346;2022-10-26T09:59:24;6.75;;;1.35;;
12587;SDS011;6359;51.450;7.346;2022-10-26T10:01:51;3.80;;;1.65;;
12587;SDS011;6359;51.450;7.346;2022-10-26T10:04:19;4.90;;;1.48;;
12587;SDS011;6359;51.450;7.346;2022-10-26T10:06:48;4.45;;;1.45;;
12587;SDS011;6359;51.450;7.346;2022-10-26T10:09:17;7.10;;;1.70;;
12587;SDS011;6359;51.450;7.346;2022-10-26T10:11:46;6.28;;;1.30;;
12587;SDS011;6359;51.450;7.346;2022-10-26T10:14:20;5.15;;;1.77;;
12587;SDS011;6359;51.450;7.346;2022-10-26T10:16:49;9.82;;;1.73;;
12587;SDS011;6359;51.450;7.346;2022-10-26T10:19:23;3.63;;;1.33;;
12587;SDS011;6359;51.450;7.346;2022-10-26T10:21:53;4.03;;;1.40;;
12587;SDS011;6359;51.450;7.346;2022-10-26T10:24:25;5.90;;;1.48;;
12587;SDS011;6359;51.450;7.346;2022-10-26T10:26:58;6.25;;;1.40;;
12587;SDS011;6359;51.450;7.346;2022-10-26T10:29:29;6.35;;;1.52;;
12587;SDS011;6359;51.450;7.346;2022-10-26T10:31:57;6.57;;;1.60;;
12587;SDS011;6359;51.450;7.346;2022-10-26T10:34:26;8.20;;;2.03;;
12587;SDS011;6359;51.450;7.346;2022-10-26T10:36:55;4.97;;;1.70;;
12587;SDS011;6359;51.450;7.346;2022-10-26T10:39:32;10.45;;;2.13;;
12587;SDS011;6359;51.450;7.346;2022-10-26T10:42:01;5.75;;;1.70;;
12587;SDS011;6359;51.450;7.346;2022-10-26T10:44:31;4.70;;;1.77;;
12587;SDS011;6359;51.450;7.346;2022-10-26T10:46:59;8.82;;;1.58;;
12587;SDS011;6359;51.450;7.346;2022-10-26T10:49:26;5.28;;;1.60;;
12587;SDS011;6359;51.450;7.346;2022-10-26T10:51:55;5.28;;;1.70;;
12587;SDS011;6359;51.450;7.346;2022-10-26T10:54:23;4.85;;;1.38;;
12587;SDS011;6359;51.450;7.346;2022-10-26T10:56:54;4.97;;;1.95;;
12587;SDS011;6359;51.450;7.346;2022-10-26T10:59:36;4.75;;;2.00;;
12587;SDS011;6359;51.450;7.346;2022-10-26T11:05:29;5.05;;;1.92;;
12587;SDS011;6359;51.450;7.346;2022-10-26T11:08:05;10.45;;;2.53;;
12587;SDS011;6359;51.450;7.346;2022-10-26T11:10:37;4.07;;;1.80;;
12587;SDS011;6359;51.450;7.346;2022-10-26T11:13:09;7.40;;;1.83;;
12587;SDS011;6359;51.450;7.346;2022-10-26T11:15:44;5.97;;;3.53;;
12587;SDS011;6359;51.450;7.346;2022-10-26T11:18:16;5.50;;;1.70;;
12587;SDS011;6359;51.450;7.346;2022-10-26T11:20:48;7.28;;;1.95;;
12587;SDS011;6359;51.450;7.346;2022-10-26T11:23:22;5.75;;;1.98;;
12587;SDS011;6359;51.450;7.346;2022-10-26T11:25:58;3.40;;;1.70;;
12587;SDS011;6359;51.450;7.346;2022-10-26T11:28:32;9.75;;;2.38;;
12587;SDS011;6359;51.450;7.346;2022-10-26T11:31:06;7.15;;;1.70;;
12587;SDS011;6359;51.450;7.346;2022-10-26T11:33:39;4.15;;;1.80;;
12587;SDS011;6359;51.450;7.346;2022-10-26T11:36:11;6.13;;;2.17;;
12587;SDS011;6359;51.450;7.346;2022-10-26T11:38:43;5.03;;;2.00;;
12587;SDS011;6359;51.450;7.346;2022-10-26T11:41:17;13.10;;;2.42;;
12587;SDS011;6359;51.450;7.346;2022-10-26T11:43:47;3.92;;;1.90;;
12587;SDS011;6359;51.450;7.346;2022-10-26T11:46:18;4.70;;;1.80;;
12587;SDS011;6359;51.450;7.346;2022-10-26T11:48:50;4.07;;;1.60;;
12587;SDS011;6359;51.450;7.346;2022-10-26T11:51:31;4.50;;;1.80;;
12587;SDS011;6359;51.450;7.346;2022-10-26T11:54:04;7.85;;;2.08;;
12587;SDS011;6359;51.450;7.346;2022-10-26T11:56:37;2.25;;;1.40;;
12587;SDS011;6359;51.450;7.346;2022-10-26T11:59:07;7.45;;;1.85;;
12587;SDS011;6359;51.450;7.346;2022-10-26T12:01:44;5.18;;;2.00;;
12587;SDS011;6359;51.450;7.346;2022-10-26T12:04:12;4.15;;;1.88;;
12587;SDS011;6359;51.450;7.346;2022-10-26T12:06:40;6.43;;;1.98;;
12587;SDS011;6359;51.450;7.346;2022-10-26T12:09:09;5.15;;;1.67;;
12587;SDS011;6359;51.450;7.346;2022-10-26T12:11:42;4.88;;;1.70;;
12587;SDS011;6359;51.450;7.346;2022-10-26T12:14:14;5.00;;;1.58;;
12587;SDS011;6359;51.450;7.346;2022-10-26T12:16:49;16.77;;;2.20;;
12587;SDS011;6359;51.450;7.346;2022-10-26T12:19:23;5.80;;;1.90;;
12587;SDS011;6359;51.450;7.346;2022-10-26T12:21:53;4.65;;;1.70;;
12587;SDS011;6359;51.450;7.346;2022-10-26T12:24:25;4.72;;;1.90;;
12587;SDS011;6359;51.450;7.346;2022-10-26T12:26:53;11.35;;;2.63;;
12587;SDS011;6359;51.450;7.346;2022-10-26T12:29:34;7.13;;;1.85;;
12587;SDS011;6359;51.450;7.346;2022-10-26T12:35:34;6.82;;;1.75;;
12587;SDS011;6359;51.450;7.346;2022-10-26T12:41:14;7.53;;;1.77;;
12587;SDS011;6359;51.450;7.346;2022-10-26T12:43:47;5.55;;;1.90;;
12587;SDS011;6359;51.450;7.346;2022-10-26T12:52:24;5.07;;;1.80;;
12587;SDS011;6359;51.450;7.346;2022-10-26T12:55:19;8.70;;;1.80;;
12587;SDS011;6359;51.450;7.346;2022-10-26T13:01:18;5.40;;;1.75;;
12587;SDS011;6359;51.450;7.346;2022-10-26T13:04:12;5.13;;;1.45;;
12587;SDS011;6359;51.450;7.346;2022-10-26T13:07:13;8.20;;;1.98;;
12587;SDS011;6359;51.450;7.346;2022-10-26T13:09:52;6.00;;;2.28;;
12587;SDS011;6359;51.450;7.346;2022-10-26T13:12:25;3.03;;;1.83;;
12587;SDS011;6359;51.450;7.346;2022-10-26T13:14:56;5.30;;;1.70;;
12587;SDS011;6359;51.450;7.346;2022-10-26T13:17:26;2.28;;;1.50;;
12587;SDS011;6359;51.450;7.346;2022-10-26T13:19:56;5.55;;;1.98;;
12587;SDS011;6359;51.450;7.346;2022-10-26T13:22:23;4.72;;;1.60;;
12587;SDS011;6359;51.450;7.346;2022-10-26T13:24:52;3.60;;;1.90;;
12587;SDS011;6359;51.450;7.346;2022-10-26T13:27:26;4.30;;;1.83;;
12587;SDS011;6359;51.450;7.346;2022-10-26T13:33:19;6.50;;;1.70;;
12587;SDS011;6359;51.450;7.346;2022-10-26T13:35:55;2.28;;;1.15;;
12587;SDS011;6359;51.450;7.346;2022-10-26T13:38:28;4.65;;;1.52;;
12587;SDS011;6359;51.450;7.346;2022-10-26T13:41:04;3.42;;;1.15;;
12587;SDS011;6359;51.450;7.346;2022-10-26T13:43:37;4.85;;;1.52;;
12587;SDS011;6359;51.450;7.346;2022-10-26T13:46:05;5.53;;;1.45;;
12587;SDS011;6359;51.450;7.346;2022-10-26T13:48:36;3.67;;;1.17;;
12587;SDS011;6359;51.450;7.346;2022-10-26T13:51:08;3.13;;;1.25;;
12587;SDS011;6359;51.450;7.346;2022-10-26T13:53:42;5.72;;;1.50;;
12587;SDS011;6359;51.450;7.346;2022-10-26T13:56:18;7.05;;;1.30;;
12587;SDS011;6359;51.450;7.346;2022-10-26T13:58:51;4.13;;;1.10;;
12587;SDS011;6359;51.450;7.346;2022-10-26T14:01:24;1.70;;;1.17;;
12587;SDS011;6359;51.450;7.346;2022-10-26T14:03:52;4.22;;;1.40;;
12587;SDS011;6359;51.450;7.346;2022-10-26T14:06:21;4.85;;;1.15;;
12587;SDS011;6359;51.450;7.346;2022-10-26T14:08:53;1.90;;;1.33;;
12587;SDS011;6359;51.450;7.346;2022-10-26T14:11:26;3.35;;;1.40;;
12587;SDS011;6359;51.450;7.346;2022-10-26T14:13:59;3.13;;;0.93;;
12587;SDS011;6359;51.450;7.346;2022-10-26T14:16:28;3.75;;;1.20;;
12587;SDS011;6359;51.450;7.346;2022-10-26T14:18:57;4.88;;;1.30;;
12587;SDS011;6359;51.450;7.346;2022-10-26T14:21:24;2.85;;;1.17;;
12587;SDS011;6359;51.450;7.346;2022-10-26T14:23:53;4.22;;;1.10;;
12587;SDS011;6359;51.450;7.346;2022-10-26T14:26:22;5.50;;;1.58;;
12587;SDS011;6359;51.450;7.346;2022-10-26T14:28:53;5.07;;;1.42;;
12587;SDS011;6359;51.450;7.346;2022-10-26T14:31:23;4.00;;;1.45;;
12587;SDS011;6359;51.450;7.346;2022-10-26T14:33:52;1.85;;;1.15;;
12587;SDS011;6359;51.450;7.346;2022-10-26T14:36:21;4.30;;;1.10;;
12587;SDS011;6359;51.450;7.346;2022-10-26T14:38:52;2.08;;;1.17;;
12587;SDS011;6359;51.450;7.346;2022-10-26T14:41:24;2.85;;;1.40;;
12587;SDS011;6359;51.450;7.346;2022-10-26T14:43:54;2.22;;;1.27;;
12587;SDS011;6359;51.450;7.346;2022-10-26T14:46:23;3.17;;;1.23;;
12587;SDS011;6359;51.450;7.346;2022-10-26T14:48:53;4.22;;;1.23;;
12587;SDS011;6359;51.450;7.346;2022-10-26T14:51:25;4.78;;;1.45;;
12587;SDS011;6359;51.450;7.346;2022-10-26T14:53:53;4.72;;;1.42;;
12587;SDS011;6359;51.450;7.346;2022-10-26T14:56:24;2.85;;;1.30;;
12587;SDS011;6359;51.450;7.346;2022-10-26T14:58:56;3.10;;;1.30;;
12587;SDS011;6359;51.450;7.346;2022-10-26T15:01:24;3.38;;;1.35;;
12587;SDS011;6359;51.450;7.346;2022-10-26T15:03:59;3.78;;;1.33;;
12587;SDS011;6359;51.450;7.346;2022-10-26T15:06:32;2.70;;;1.52;;
12587;SDS011;6359;51.450;7.346;2022-10-26T15:09:03;5.22;;;1.50;;
12587;SDS011;6359;51.450;7.346;2022-10-26T15:11:32;4.75;;;1.65;;
12587;SDS011;6359;51.450;7.346;2022-10-26T15:14:01;5.63;;;1.67;;
12587;SDS011;6359;51.450;7.346;2022-10-26T15:16:29;4.90;;;1.80;;
12587;SDS011;6359;51.450;7.346;2022-10-26T15:18:59;3.63;;;1.50;;
12587;SDS011;6359;51.450;7.346;2022-10-26T15:21:33;4.45;;;1.50;;
12587;SDS011;6359;51.450;7.346;2022-10-26T15:24:10;3.58;;;1.40;;
12587;SDS011;6359;51.450;7.346;2022-10-26T15:26:46;4.53;;;2.65;;
12587;SDS011;6359;51.450;7.346;2022-10-26T15:32:04;9.20;;;1.60;;
12587;SDS011;6359;51.450;7.346;2022-10-26T15:34:45;4.38;;;1.67;;
12587;SDS011;6359;51.450;7.346;2022-10-26T15:37:14;5.82;;;1.40;;
12587;SDS011;6359;51.450;7.346;2022-10-26T15:39:41;3.10;;;1.40;;
12587;SDS011;6359;51.450;7.346;2022-10-26T15:42:08;6.22;;;2.10;;
12587;SDS011;6359;51.450;7.346;2022-10-26T15:44:40;9.48;;;1.40;;
12587;SDS011;6359;51.450;7.346;2022-10-26T15:47:08;6.28;;;2.50;;
12587;SDS011;6359;51.450;7.346;2022-10-26T15:49:44;4.53;;;1.80;;